Cherneski — AEGG — position and weather

sailwx.info

Track history (hours):
 
Tides and Currents Weather Stations Pressure Air Temp Water Temp Dewpoint Dewpoint Depression Visibility Wind Speed Wind Dir Waves Ship Positions

Cherneski

Last reported at 2017-Oct-05 12:44 UTC. Time now 2017-Nov-18 17:51 UTC.
Position N 39°18' W 074°40'.
Warning: this ship's position is 44 days out of date.

Length 16 m.

Type: Dredging. MMSI: 366999302.

Date/timePositionNaut miles runAvg speedWind from/ knotsBaromVisibWave heightAir tempDewpointWater temp
2017-Oct-05 12:44N 39°18' W 074°40'2 4.9
2017-Oct-05 12:23N 39°18' W 074°38'4 9.4
2017-Oct-05 11:55N 39°18' W 074°32'0 0.1
2017-Oct-05 10:03N 39°19' W 074°32'0 0.0
2017-Oct-05 09:12N 39°19' W 074°32'0 0.0
2017-Oct-05 07:45N 39°19' W 074°32'0 0.0
2017-Oct-05 07:27N 39°19' W 074°32'0 0.0
2017-Oct-05 06:48N 39°19' W 074°32'0 0.0
2017-Oct-05 06:15N 39°19' W 074°32'0 0.0
2017-Oct-05 05:57N 39°19' W 074°32'0 0.0
2017-Oct-05 05:24N 39°19' W 074°32'0 0.0
2017-Oct-05 01:38N 39°19' W 074°32'0 0.0
2017-Oct-05 01:26N 39°19' W 074°32'0 0.0
2017-Oct-04 14:31N 39°19' W 074°32'0 2.0
2017-Oct-04 14:25N 39°19' W 074°32'716.5
2017-Oct-04 14:00N 39°13' W 074°36'1222.9
2017-Oct-04 13:27N 39°02' W 074°44'818.0
2017-Oct-04 13:00N 38°57' W 074°53'4 0.2
2017-Oct-03 14:34N 38°58' W 074°58'1322.5
2017-Oct-03 14:00N 39°06' W 075°10'1123.0
2017-Oct-03 13:31N 39°15' W 075°19'1121.9
2017-Oct-03 13:01N 39°24' W 075°29'1019.2
2017-Oct-03 12:31N 39°33' W 075°33'1019.4
2017-Oct-03 12:00N 39°42' W 075°31'816.7
2017-Oct-03 11:31N 39°49' W 075°24'918.2
2017-Oct-03 11:01N 39°52' W 075°13'0 0.9
2017-Oct-03 10:29N 39°53' W 075°13'0 0.0
2017-Oct-03 09:59N 39°53' W 075°13'0 0.0
2017-Oct-03 09:29N 39°53' W 075°13'0 0.0
2017-Oct-03 08:59N 39°53' W 075°13'0 0.0
2017-Oct-03 08:29N 39°53' W 075°13'0 0.0
2017-Oct-03 07:59N 39°53' W 075°13'0 0.0
2017-Oct-03 07:29N 39°53' W 075°13'0 0.0
2017-Oct-03 06:59N 39°53' W 075°13'0 0.0
2017-Oct-03 06:29N 39°53' W 075°13'0 0.0
2017-Oct-03 05:59N 39°53' W 075°13'0 0.0
2017-Oct-03 05:29N 39°53' W 075°13'0 0.0
2017-Oct-03 04:59N 39°53' W 075°13'0 0.0
2017-Oct-03 04:29N 39°53' W 075°13'0 0.0
2017-Oct-03 03:59N 39°53' W 075°13'0 0.0
2017-Oct-03 03:29N 39°53' W 075°13'0 0.0
2017-Oct-03 02:59N 39°53' W 075°13'0 0.0
2017-Oct-03 02:29N 39°53' W 075°13'0 0.0
2017-Oct-03 01:59N 39°53' W 075°13'0 0.0
2017-Oct-03 01:29N 39°53' W 075°13'0 0.0
2017-Oct-03 00:59N 39°53' W 075°13'0 0.0
2017-Oct-03 00:29N 39°53' W 075°13'0 0.0
2017-Oct-02 23:59N 39°53' W 075°13'0 0.0
2017-Oct-02 23:29N 39°53' W 075°13'0 0.0
2017-Oct-02 22:59N 39°53' W 075°13'0 0.0
2017-Oct-02 22:29N 39°53' W 075°13'0 0.0
2017-Oct-02 21:59N 39°53' W 075°13'0 0.0
2017-Oct-02 21:29N 39°53' W 075°13'0 0.0
2017-Oct-02 20:59N 39°53' W 075°13'0 0.0
2017-Oct-02 20:29N 39°53' W 075°13'0 0.0
2017-Oct-02 19:59N 39°53' W 075°13'0 0.0
2017-Oct-02 19:29N 39°53' W 075°13'0 0.0
2017-Oct-02 18:59N 39°53' W 075°13'0 0.0
2017-Oct-02 18:29N 39°53' W 075°13'0 0.0
2017-Oct-02 18:00N 39°53' W 075°13'0 0.2
2017-Oct-02 17:31N 39°52' W 075°13'3 6.3
2017-Oct-02 17:00N 39°51' W 075°16'0 0.2
2017-Oct-02 16:31N 39°51' W 075°16'0 0.2
2017-Oct-02 16:00N 39°51' W 075°16'0 0.5
2017-Oct-02 15:30N 39°51' W 075°16'1 1.3
2017-Oct-02 15:01N 39°51' W 075°17'0 0.2
2017-Oct-02 14:30N 39°51' W 075°17'0 0.8
2017-Oct-02 14:01N 39°51' W 075°18'1 1.4
2017-Oct-02 13:30N 39°51' W 075°17'0 0.8
2017-Oct-02 13:00N 39°51' W 075°18'4 7.9
2017-Oct-02 12:31N 39°52' W 075°13'0 0.7
2017-Oct-02 12:01N 39°53' W 075°13'0 0.0
2017-Oct-02 11:31N 39°53' W 075°13'0 0.0
2017-Oct-02 11:01N 39°53' W 075°13'0 0.0
2017-Oct-02 10:30N 39°53' W 075°13'0 0.0
2017-Oct-02 10:00N 39°53' W 075°13'0 0.0
2017-Oct-02 09:30N 39°53' W 075°13'0 0.0
2017-Oct-02 09:00N 39°53' W 075°13'0 0.0
2017-Oct-02 08:30N 39°53' W 075°13'0 0.0
2017-Oct-02 08:00N 39°53' W 075°13'0 0.0
2017-Oct-02 07:30N 39°53' W 075°13'0 0.0
2017-Oct-02 07:00N 39°53' W 075°13'0 0.0
2017-Oct-02 06:31N 39°53' W 075°13'0 0.0
2017-Oct-02 06:00N 39°53' W 075°13'0 0.0
2017-Oct-02 05:30N 39°53' W 075°13'0 0.0
2017-Oct-02 05:00N 39°53' W 075°13'0 0.0
2017-Oct-02 04:30N 39°53' W 075°13'0 0.0
2017-Oct-02 04:00N 39°53' W 075°13'0 0.0
2017-Oct-02 03:31N 39°53' W 075°13'0 0.0
2017-Oct-02 03:00N 39°53' W 075°13'0 0.0
2017-Oct-02 02:30N 39°53' W 075°13'0 0.0
2017-Oct-02 02:00N 39°53' W 075°13'0 0.0
2017-Oct-02 01:31N 39°53' W 075°13'0 0.0
2017-Oct-02 01:01N 39°53' W 075°13'0 0.0
2017-Oct-02 00:31N 39°53' W 075°13'0 0.0
2017-Oct-02 00:00N 39°53' W 075°13'0 0.0
2017-Oct-01 23:30N 39°53' W 075°13'0 0.0
2017-Oct-01 23:01N 39°53' W 075°13'0 0.0
2017-Oct-01 22:30N 39°53' W 075°13'0 0.0
2017-Oct-01 22:00N 39°53' W 075°13'0 0.0
2017-Oct-01 21:31N 39°53' W 075°13'0 0.0
2017-Oct-01 21:00N 39°53' W 075°13'0 0.0
2017-Oct-01 20:31N 39°53' W 075°13'0 0.0
2017-Oct-01 20:00N 39°53' W 075°13'0 0.0
2017-Oct-01 19:31N 39°53' W 075°13'0 0.0
2017-Oct-01 19:01N 39°53' W 075°13'0 0.0
2017-Oct-01 18:31N 39°53' W 075°13'0 0.0
2017-Oct-01 18:01N 39°53' W 075°13'0 0.0
2017-Oct-01 17:31N 39°53' W 075°13'0 0.0
2017-Oct-01 17:00N 39°53' W 075°13'0 0.0
2017-Oct-01 16:30N 39°53' W 075°13'0 0.0
2017-Oct-01 16:00N 39°53' W 075°13'0 0.0
2017-Oct-01 15:31N 39°53' W 075°13'0 0.0
2017-Oct-01 15:00N 39°53' W 075°13'0 0.0
2017-Oct-01 14:30N 39°53' W 075°13'0 0.0
2017-Oct-01 14:00N 39°53' W 075°13'0 0.0
2017-Oct-01 13:31N 39°53' W 075°13'0 0.0
2017-Oct-01 13:00N 39°53' W 075°13'0 0.0
2017-Oct-01 12:30N 39°53' W 075°13'0 0.0
2017-Oct-01 12:01N 39°53' W 075°13'0 0.0
2017-Oct-01 11:30N 39°53' W 075°13'0 0.0
2017-Oct-01 11:00N 39°53' W 075°13'0 0.0
2017-Oct-01 10:30N 39°53' W 075°13'0 0.0
2017-Oct-01 10:01N 39°53' W 075°13'0 0.0
2017-Oct-01 09:30N 39°53' W 075°13'0 0.0
2017-Oct-01 09:00N 39°53' W 075°13'0 0.0
2017-Oct-01 08:30N 39°53' W 075°13'0 0.0
2017-Oct-01 08:00N 39°53' W 075°13'0 0.0
2017-Oct-01 07:30N 39°53' W 075°13'0 0.0
2017-Oct-01 07:00N 39°53' W 075°13'0 0.0
2017-Oct-01 06:30N 39°53' W 075°13'0 0.0
2017-Oct-01 06:00N 39°53' W 075°13'0 0.0
2017-Oct-01 05:30N 39°53' W 075°13'0 0.0
2017-Oct-01 05:00N 39°53' W 075°13'0 0.0
2017-Oct-01 04:30N 39°53' W 075°13'0 0.0
2017-Oct-01 04:00N 39°53' W 075°13'0 0.0
2017-Oct-01 03:30N 39°53' W 075°13'0 0.0
2017-Oct-01 03:00N 39°53' W 075°13'0 0.0
2017-Sep-30 02:00N 39°53' W 075°13'0 0.0
2017-Sep-30 01:31N 39°53' W 075°13'0 0.0
2017-Sep-30 01:00N 39°53' W 075°13'0 0.0
2017-Sep-30 00:30N 39°53' W 075°13'0 0.0
2017-Sep-30 00:01N 39°53' W 075°13'0 0.0
2017-Sep-29 23:31N 39°53' W 075°13'0 0.0
2017-Sep-29 23:01N 39°53' W 075°13'0 0.0
2017-Sep-29 22:31N 39°53' W 075°13'0 0.0
2017-Sep-29 22:01N 39°53' W 075°13'0 0.0
2017-Sep-29 21:31N 39°53' W 075°13'0 0.0
2017-Sep-29 21:01N 39°53' W 075°13'0 0.0
2017-Sep-29 20:31N 39°53' W 075°13'0 0.0
2017-Sep-29 20:01N 39°53' W 075°13'0 0.0
2017-Sep-29 19:30N 39°53' W 075°13'0 0.0
2017-Sep-29 19:01N 39°53' W 075°13'0 0.0
2017-Sep-29 18:30N 39°53' W 075°13'0 0.0
2017-Sep-29 18:01N 39°53' W 075°13'0 0.0
2017-Sep-29 17:31N 39°53' W 075°13'0 0.0
2017-Sep-29 17:00N 39°53' W 075°13'4 8.1
2017-Sep-29 16:30N 39°51' W 075°17'1 2.1
2017-Sep-29 16:00N 39°51' W 075°19'0 0.8
2017-Sep-29 15:30N 39°51' W 075°19'0 0.3
2017-Sep-29 15:00N 39°51' W 075°19'0 0.8
2017-Sep-29 14:30N 39°51' W 075°19'0 0.3
2017-Sep-29 14:01N 39°51' W 075°19'5 9.8
2017-Sep-29 13:31N 39°49' W 075°24'816.1
2017-Sep-29 13:00N 39°42' W 075°31'817.0
2017-Sep-29 12:31N 39°34' W 075°35'0 0.3
2017-Sep-29 11:58N 39°34' W 075°35'0 0.0
2017-Sep-29 11:28N 39°34' W 075°35'0 0.0
2017-Sep-29 10:58N 39°34' W 075°35'0 0.0
2017-Sep-29 10:28N 39°34' W 075°35'0 0.0
2017-Sep-29 09:58N 39°34' W 075°35'0 0.0
2017-Sep-29 09:28N 39°34' W 075°35'0 0.0
2017-Sep-29 08:58N 39°34' W 075°35'0 0.0
2017-Sep-29 08:28N 39°34' W 075°35'0 0.0
2017-Sep-29 07:58N 39°34' W 075°35'0 0.0
2017-Sep-29 07:28N 39°34' W 075°35'0 0.0
2017-Sep-29 06:58N 39°34' W 075°35'0 0.0
2017-Sep-29 06:28N 39°34' W 075°35'0 0.0
2017-Sep-29 05:58N 39°34' W 075°35'0 0.0
2017-Sep-29 05:28N 39°34' W 075°35'0 0.0
2017-Sep-29 04:58N 39°34' W 075°35'0 0.0
2017-Sep-29 04:28N 39°34' W 075°35'0 0.0
2017-Sep-29 03:58N 39°34' W 075°35'0 0.0
2017-Sep-29 03:28N 39°34' W 075°35'0 0.0
2017-Sep-29 02:58N 39°34' W 075°35'0 0.0
2017-Sep-29 02:28N 39°34' W 075°35'0 0.0
2017-Sep-29 01:58N 39°34' W 075°35'0 0.0
2017-Sep-29 01:28N 39°34' W 075°35'0 0.0
2017-Sep-29 00:58N 39°34' W 075°35'0 0.0
2017-Sep-29 00:28N 39°34' W 075°35'0 0.0
2017-Sep-28 23:58N 39°34' W 075°35'0 0.0
2017-Sep-28 23:28N 39°34' W 075°35'0 0.0
2017-Sep-28 22:58N 39°34' W 075°35'0 0.0
2017-Sep-28 22:28N 39°34' W 075°35'0 0.0
2017-Sep-28 21:58N 39°34' W 075°35'0 0.0
2017-Sep-28 21:28N 39°34' W 075°35'0 0.0
2017-Sep-28 20:58N 39°34' W 075°35'0 0.0
2017-Sep-28 20:28N 39°34' W 075°35'0 0.0
2017-Sep-28 19:58N 39°34' W 075°35'0 0.0
2017-Sep-28 19:28N 39°34' W 075°35'0 0.0
2017-Sep-28 18:58N 39°34' W 075°35'0 0.0
2017-Sep-28 18:28N 39°34' W 075°35'0 0.0
2017-Sep-28 17:58N 39°34' W 075°35'0 0.0
2017-Sep-28 17:28N 39°34' W 075°35'0 0.0
2017-Sep-28 16:58N 39°34' W 075°35'0 0.0
2017-Sep-28 16:28N 39°34' W 075°35'0 0.0
2017-Sep-28 15:58N 39°34' W 075°35'0 0.1
2017-Sep-28 15:30N 39°34' W 075°35'0 0.0
2017-Sep-28 15:00N 39°34' W 075°35'0 0.0
2017-Sep-28 14:31N 39°34' W 075°35'3 6.9
2017-Sep-28 14:00N 39°38' W 075°35'0 0.3
2017-Sep-28 13:30N 39°38' W 075°35'0 0.3
2017-Sep-28 13:00N 39°38' W 075°35'0 0.2
2017-Sep-28 12:30N 39°38' W 075°35'3 5.3
2017-Sep-28 12:00N 39°35' W 075°35'1 1.1
2017-Sep-28 11:28N 39°34' W 075°35'0 0.0
2017-Sep-28 10:58N 39°34' W 075°35'0 0.0
2017-Sep-28 10:28N 39°34' W 075°35'0 0.0
2017-Sep-28 09:58N 39°34' W 075°35'0 0.0
2017-Sep-28 09:28N 39°34' W 075°35'0 0.0
2017-Sep-28 08:58N 39°34' W 075°35'0 0.0
2017-Sep-28 08:28N 39°34' W 075°35'0 0.0
2017-Sep-28 07:58N 39°34' W 075°35'0 0.0
2017-Sep-28 07:28N 39°34' W 075°35'0 0.0
2017-Sep-28 06:58N 39°34' W 075°35'0 0.0
2017-Sep-28 06:28N 39°34' W 075°35'0 0.0
2017-Sep-28 05:58N 39°34' W 075°35'0 0.0
2017-Sep-28 05:28N 39°34' W 075°35'0 0.0
2017-Sep-28 04:58N 39°34' W 075°35'0 0.0
2017-Sep-28 04:28N 39°34' W 075°35'0 0.0
2017-Sep-28 03:58N 39°34' W 075°35'0 0.0
2017-Sep-28 03:28N 39°34' W 075°35'0 0.0
2017-Sep-28 02:58N 39°34' W 075°35'0 0.0
2017-Sep-28 02:28N 39°34' W 075°35'0 0.0
2017-Sep-28 01:58N 39°34' W 075°35'0 0.0
2017-Sep-28 01:28N 39°34' W 075°35'0 0.0
2017-Sep-28 00:58N 39°34' W 075°35'0 0.0
2017-Sep-28 00:28N 39°34' W 075°35'0 0.0
2017-Sep-27 23:58N 39°34' W 075°35'0 0.0
2017-Sep-27 23:28N 39°34' W 075°35'0 0.0
2017-Sep-27 22:58N 39°34' W 075°35'0 0.0
2017-Sep-27 22:28N 39°34' W 075°35'0 0.0
2017-Sep-27 21:58N 39°34' W 075°35'0 0.0
2017-Sep-27 21:28N 39°34' W 075°35'0 0.0
2017-Sep-27 20:58N 39°34' W 075°35'0 0.0
2017-Sep-27 20:28N 39°34' W 075°35'0 0.0
2017-Sep-27 19:58N 39°34' W 075°35'0 0.0
2017-Sep-27 19:28N 39°34' W 075°35'0 0.0
2017-Sep-27 18:58N 39°34' W 075°35'0 0.0
2017-Sep-27 18:28N 39°34' W 075°35'0 0.0
2017-Sep-27 17:58N 39°34' W 075°35'0 0.0
2017-Sep-27 17:28N 39°34' W 075°35'0 0.0
2017-Sep-27 16:58N 39°34' W 075°35'0 0.0
2017-Sep-27 16:30N 39°34' W 075°35'4 8.6
2017-Sep-27 16:00N 39°39' W 075°35'1 1.2
2017-Sep-27 15:30N 39°38' W 075°34'0 0.5
2017-Sep-27 15:00N 39°38' W 075°34'1 2.1
2017-Sep-27 14:30N 39°39' W 075°33'0 0.9
2017-Sep-27 14:00N 39°38' W 075°34'0 0.4
2017-Sep-27 13:30N 39°38' W 075°34'0 0.1
2017-Sep-27 13:00N 39°38' W 075°34'1 1.0
2017-Sep-27 12:31N 39°38' W 075°34'4 6.9
2017-Sep-27 11:58N 39°34' W 075°35'0 0.0
2017-Sep-27 11:28N 39°34' W 075°35'0 0.0
2017-Sep-27 10:58N 39°34' W 075°35'0 0.0
2017-Sep-27 10:25N 39°34' W 075°35'0 0.0
2017-Sep-27 09:58N 39°34' W 075°35'0 0.0
2017-Sep-27 09:28N 39°34' W 075°35'0 0.0
2017-Sep-27 08:58N 39°34' W 075°35'0 0.0
2017-Sep-27 08:28N 39°34' W 075°35'0 0.0
2017-Sep-27 07:58N 39°34' W 075°35'0 0.0
2017-Sep-27 07:28N 39°34' W 075°35'0 0.0
2017-Sep-27 06:58N 39°34' W 075°35'0 0.0
2017-Sep-27 06:28N 39°34' W 075°35'0 0.0
2017-Sep-27 05:58N 39°34' W 075°35'0 0.0
2017-Sep-27 05:28N 39°34' W 075°35'0 0.0
2017-Sep-27 04:58N 39°34' W 075°35'0 0.0
2017-Sep-27 04:28N 39°34' W 075°35'0 0.0
2017-Sep-27 03:58N 39°34' W 075°35'0 0.0
2017-Sep-27 03:28N 39°34' W 075°35'0 0.0
2017-Sep-27 02:58N 39°34' W 075°35'0 0.0
2017-Sep-27 02:28N 39°34' W 075°35'0 0.0
2017-Sep-27 01:58N 39°34' W 075°35'0 0.0
2017-Sep-27 01:28N 39°34' W 075°35'0 0.0
2017-Sep-27 00:58N 39°34' W 075°35'0 0.0
2017-Sep-27 00:28N 39°34' W 075°35'0 0.0
2017-Sep-26 23:58N 39°34' W 075°35'0 0.0
2017-Sep-26 23:28N 39°34' W 075°35'0 0.0
2017-Sep-26 22:58N 39°34' W 075°35'0 0.0
2017-Sep-26 22:28N 39°34' W 075°35'0 0.0
2017-Sep-26 21:58N 39°34' W 075°35'0 0.0
2017-Sep-26 21:28N 39°34' W 075°35'0 0.0
2017-Sep-26 20:58N 39°34' W 075°35'0 0.0
2017-Sep-26 20:28N 39°34' W 075°35'0 0.0
2017-Sep-26 19:58N 39°34' W 075°35'0 0.0
2017-Sep-26 19:28N 39°34' W 075°35'0 0.0
2017-Sep-26 18:58N 39°34' W 075°35'0 0.0
2017-Sep-26 18:28N 39°34' W 075°35'0 0.0
2017-Sep-26 17:58N 39°34' W 075°35'0 0.0
2017-Sep-26 17:28N 39°34' W 075°35'0 0.0
2017-Sep-26 16:58N 39°34' W 075°35'0 0.0
2017-Sep-26 16:28N 39°34' W 075°35'0 0.0
2017-Sep-26 15:58N 39°34' W 075°35'0 0.0
2017-Sep-26 15:30N 39°34' W 075°35'0 0.0
2017-Sep-26 15:00N 39°34' W 075°35'0 0.0
2017-Sep-26 14:30N 39°34' W 075°35'2 4.2
2017-Sep-26 14:00N 39°34' W 075°33'0 0.3
2017-Sep-26 13:30N 39°34' W 075°33'0 0.1
2017-Sep-26 13:00N 39°34' W 075°33'0 0.9
2017-Sep-26 12:30N 39°34' W 075°33'2 3.5
2017-Sep-26 12:00N 39°34' W 075°35'0 0.0
2017-Sep-26 11:30N 39°34' W 075°35'0 0.0
2017-Sep-26 11:00N 39°34' W 075°35'0 0.0
2017-Sep-26 10:30N 39°34' W 075°35'0 0.0
2017-Sep-26 10:00N 39°34' W 075°35'0 0.0
2017-Sep-26 09:30N 39°34' W 075°35'0 0.0
2017-Sep-26 09:00N 39°34' W 075°35'0 0.0
2017-Sep-26 08:30N 39°34' W 075°35'0 0.0
2017-Sep-26 08:00N 39°34' W 075°35'0 0.0
2017-Sep-26 07:30N 39°34' W 075°35'0 0.0
2017-Sep-26 07:00N 39°34' W 075°35'0 0.0
2017-Sep-26 06:30N 39°34' W 075°35'0 0.0
2017-Sep-26 06:00N 39°34' W 075°35'0 0.0
2017-Sep-26 05:30N 39°34' W 075°35'0 0.0
2017-Sep-26 05:01N 39°34' W 075°35'0 0.0
2017-Sep-26 04:30N 39°34' W 075°35'0 0.0
2017-Sep-26 04:00N 39°34' W 075°35'0 0.0
2017-Sep-26 03:30N 39°34' W 075°35'0 0.0
2017-Sep-26 03:00N 39°34' W 075°35'0 0.0
2017-Sep-26 02:30N 39°34' W 075°35'0 0.0
2017-Sep-26 02:00N 39°34' W 075°35'0 0.0
2017-Sep-26 01:30N 39°34' W 075°35'0 0.0
2017-Sep-26 01:00N 39°34' W 075°35'0 0.0
2017-Sep-26 00:30N 39°34' W 075°35'0 0.0
2017-Sep-26 00:00N 39°34' W 075°35'0 0.0
2017-Sep-25 23:30N 39°34' W 075°35'0 0.0
2017-Sep-25 23:00N 39°34' W 075°35'0 0.0
2017-Sep-25 22:30N 39°34' W 075°35'0 0.0
2017-Sep-25 22:00N 39°34' W 075°35'0 0.0
2017-Sep-25 21:30N 39°34' W 075°35'0 0.0
2017-Sep-25 21:00N 39°34' W 075°35'0 0.0
2017-Sep-25 20:30N 39°34' W 075°35'0 0.0
2017-Sep-25 20:00N 39°34' W 075°35'0 0.0
2017-Sep-25 19:30N 39°34' W 075°35'0 0.0
2017-Sep-25 19:00N 39°34' W 075°35'0 0.0
2017-Sep-25 18:30N 39°34' W 075°35'0 0.0
2017-Sep-25 18:00N 39°34' W 075°35'0 0.0
2017-Sep-25 17:30N 39°34' W 075°35'0 0.0
2017-Sep-25 17:00N 39°34' W 075°35'0 0.0
2017-Sep-25 16:30N 39°34' W 075°35'0 0.0
2017-Sep-25 16:00N 39°34' W 075°35'0 0.0
2017-Sep-25 15:30N 39°34' W 075°35'0 0.0
2017-Sep-25 15:00N 39°34' W 075°35'0 0.0
2017-Sep-25 14:30N 39°34' W 075°35'0 0.0
2017-Sep-25 14:00N 39°34' W 075°35'0 0.0
2017-Sep-25 13:31N 39°34' W 075°35'0 0.0
2017-Sep-25 13:00N 39°34' W 075°35'  
Track history (hours):
 
Tides and Currents Weather Stations Pressure Air Temp Water Temp Dewpoint Dewpoint Depression Visibility Wind Speed Wind Dir Waves Ship Positions

Cherneski

Last reported at 2017-Oct-05 12:44 UTC. Time now 2017-Nov-18 17:51 UTC.
Position N 39°18' W 074°40'.
Warning: this ship's position is 44 days out of date.

Length 16 m.

Type: Dredging. MMSI: 366999302.

Date/timePositionNaut miles runAvg speedWind from/ knotsBaromVisibWave heightAir tempDewpointWater temp
2017-Oct-05 12:44N 39°18' W 074°40'2 4.9
2017-Oct-05 12:23N 39°18' W 074°38'4 9.4
2017-Oct-05 11:55N 39°18' W 074°32'0 0.1
2017-Oct-05 10:03N 39°19' W 074°32'0 0.0
2017-Oct-05 09:12N 39°19' W 074°32'0 0.0
2017-Oct-05 07:45N 39°19' W 074°32'0 0.0
2017-Oct-05 07:27N 39°19' W 074°32'0 0.0
2017-Oct-05 06:48N 39°19' W 074°32'0 0.0
2017-Oct-05 06:15N 39°19' W 074°32'0 0.0
2017-Oct-05 05:57N 39°19' W 074°32'0 0.0
2017-Oct-05 05:24N 39°19' W 074°32'0 0.0
2017-Oct-05 01:38N 39°19' W 074°32'0 0.0
2017-Oct-05 01:26N 39°19' W 074°32'0 0.0
2017-Oct-04 14:31N 39°19' W 074°32'0 2.0
2017-Oct-04 14:25N 39°19' W 074°32'716.5
2017-Oct-04 14:00N 39°13' W 074°36'1222.9
2017-Oct-04 13:27N 39°02' W 074°44'818.0
2017-Oct-04 13:00N 38°57' W 074°53'4 0.2
2017-Oct-03 14:34N 38°58' W 074°58'1322.5
2017-Oct-03 14:00N 39°06' W 075°10'1123.0
2017-Oct-03 13:31N 39°15' W 075°19'1121.9
2017-Oct-03 13:01N 39°24' W 075°29'1019.2
2017-Oct-03 12:31N 39°33' W 075°33'1019.4
2017-Oct-03 12:00N 39°42' W 075°31'816.7
2017-Oct-03 11:31N 39°49' W 075°24'918.2
2017-Oct-03 11:01N 39°52' W 075°13'0 0.9
2017-Oct-03 10:29N 39°53' W 075°13'0 0.0
2017-Oct-03 09:59N 39°53' W 075°13'0 0.0
2017-Oct-03 09:29N 39°53' W 075°13'0 0.0
2017-Oct-03 08:59N 39°53' W 075°13'0 0.0
2017-Oct-03 08:29N 39°53' W 075°13'0 0.0
2017-Oct-03 07:59N 39°53' W 075°13'0 0.0
2017-Oct-03 07:29N 39°53' W 075°13'0 0.0
2017-Oct-03 06:59N 39°53' W 075°13'0 0.0
2017-Oct-03 06:29N 39°53' W 075°13'0 0.0
2017-Oct-03 05:59N 39°53' W 075°13'0 0.0
2017-Oct-03 05:29N 39°53' W 075°13'0 0.0
2017-Oct-03 04:59N 39°53' W 075°13'0 0.0
2017-Oct-03 04:29N 39°53' W 075°13'0 0.0
2017-Oct-03 03:59N 39°53' W 075°13'0 0.0
2017-Oct-03 03:29N 39°53' W 075°13'0 0.0
2017-Oct-03 02:59N 39°53' W 075°13'0 0.0
2017-Oct-03 02:29N 39°53' W 075°13'0 0.0
2017-Oct-03 01:59N 39°53' W 075°13'0 0.0
2017-Oct-03 01:29N 39°53' W 075°13'0 0.0
2017-Oct-03 00:59N 39°53' W 075°13'0 0.0
2017-Oct-03 00:29N 39°53' W 075°13'0 0.0
2017-Oct-02 23:59N 39°53' W 075°13'0 0.0
2017-Oct-02 23:29N 39°53' W 075°13'0 0.0
2017-Oct-02 22:59N 39°53' W 075°13'0 0.0
2017-Oct-02 22:29N 39°53' W 075°13'0 0.0
2017-Oct-02 21:59N 39°53' W 075°13'0 0.0
2017-Oct-02 21:29N 39°53' W 075°13'0 0.0
2017-Oct-02 20:59N 39°53' W 075°13'0 0.0
2017-Oct-02 20:29N 39°53' W 075°13'0 0.0
2017-Oct-02 19:59N 39°53' W 075°13'0 0.0
2017-Oct-02 19:29N 39°53' W 075°13'0 0.0
2017-Oct-02 18:59N 39°53' W 075°13'0 0.0
2017-Oct-02 18:29N 39°53' W 075°13'0 0.0
2017-Oct-02 18:00N 39°53' W 075°13'0 0.2
2017-Oct-02 17:31N 39°52' W 075°13'3 6.3
2017-Oct-02 17:00N 39°51' W 075°16'0 0.2
2017-Oct-02 16:31N 39°51' W 075°16'0 0.2
2017-Oct-02 16:00N 39°51' W 075°16'0 0.5
2017-Oct-02 15:30N 39°51' W 075°16'1 1.3
2017-Oct-02 15:01N 39°51' W 075°17'0 0.2
2017-Oct-02 14:30N 39°51' W 075°17'0 0.8
2017-Oct-02 14:01N 39°51' W 075°18'1 1.4
2017-Oct-02 13:30N 39°51' W 075°17'0 0.8
2017-Oct-02 13:00N 39°51' W 075°18'4 7.9
2017-Oct-02 12:31N 39°52' W 075°13'0 0.7
2017-Oct-02 12:01N 39°53' W 075°13'0 0.0
2017-Oct-02 11:31N 39°53' W 075°13'0 0.0
2017-Oct-02 11:01N 39°53' W 075°13'0 0.0
2017-Oct-02 10:30N 39°53' W 075°13'0 0.0
2017-Oct-02 10:00N 39°53' W 075°13'0 0.0
2017-Oct-02 09:30N 39°53' W 075°13'0 0.0
2017-Oct-02 09:00N 39°53' W 075°13'0 0.0
2017-Oct-02 08:30N 39°53' W 075°13'0 0.0
2017-Oct-02 08:00N 39°53' W 075°13'0 0.0
2017-Oct-02 07:30N 39°53' W 075°13'0 0.0
2017-Oct-02 07:00N 39°53' W 075°13'0 0.0
2017-Oct-02 06:31N 39°53' W 075°13'0 0.0
2017-Oct-02 06:00N 39°53' W 075°13'0 0.0
2017-Oct-02 05:30N 39°53' W 075°13'0 0.0
2017-Oct-02 05:00N 39°53' W 075°13'0 0.0
2017-Oct-02 04:30N 39°53' W 075°13'0 0.0
2017-Oct-02 04:00N 39°53' W 075°13'0 0.0
2017-Oct-02 03:31N 39°53' W 075°13'0 0.0
2017-Oct-02 03:00N 39°53' W 075°13'0 0.0
2017-Oct-02 02:30N 39°53' W 075°13'0 0.0
2017-Oct-02 02:00N 39°53' W 075°13'0 0.0
2017-Oct-02 01:31N 39°53' W 075°13'0 0.0
2017-Oct-02 01:01N 39°53' W 075°13'0 0.0
2017-Oct-02 00:31N 39°53' W 075°13'0 0.0
2017-Oct-02 00:00N 39°53' W 075°13'0 0.0
2017-Oct-01 23:30N 39°53' W 075°13'0 0.0
2017-Oct-01 23:01N 39°53' W 075°13'0 0.0
2017-Oct-01 22:30N 39°53' W 075°13'0 0.0
2017-Oct-01 22:00N 39°53' W 075°13'0 0.0
2017-Oct-01 21:31N 39°53' W 075°13'0 0.0
2017-Oct-01 21:00N 39°53' W 075°13'0 0.0
2017-Oct-01 20:31N 39°53' W 075°13'0 0.0
2017-Oct-01 20:00N 39°53' W 075°13'0 0.0
2017-Oct-01 19:31N 39°53' W 075°13'0 0.0
2017-Oct-01 19:01N 39°53' W 075°13'0 0.0
2017-Oct-01 18:31N 39°53' W 075°13'0 0.0
2017-Oct-01 18:01N 39°53' W 075°13'0 0.0
2017-Oct-01 17:31N 39°53' W 075°13'0 0.0
2017-Oct-01 17:00N 39°53' W 075°13'0 0.0
2017-Oct-01 16:30N 39°53' W 075°13'0 0.0
2017-Oct-01 16:00N 39°53' W 075°13'0 0.0
2017-Oct-01 15:31N 39°53' W 075°13'0 0.0
2017-Oct-01 15:00N 39°53' W 075°13'0 0.0
2017-Oct-01 14:30N 39°53' W 075°13'0 0.0
2017-Oct-01 14:00N 39°53' W 075°13'0 0.0
2017-Oct-01 13:31N 39°53' W 075°13'0 0.0
2017-Oct-01 13:00N 39°53' W 075°13'0 0.0
2017-Oct-01 12:30N 39°53' W 075°13'0 0.0
2017-Oct-01 12:01N 39°53' W 075°13'0 0.0
2017-Oct-01 11:30N 39°53' W 075°13'0 0.0
2017-Oct-01 11:00N 39°53' W 075°13'0 0.0
2017-Oct-01 10:30N 39°53' W 075°13'0 0.0
2017-Oct-01 10:01N 39°53' W 075°13'0 0.0
2017-Oct-01 09:30N 39°53' W 075°13'0 0.0
2017-Oct-01 09:00N 39°53' W 075°13'0 0.0
2017-Oct-01 08:30N 39°53' W 075°13'0 0.0
2017-Oct-01 08:00N 39°53' W 075°13'0 0.0
2017-Oct-01 07:30N 39°53' W 075°13'0 0.0
2017-Oct-01 07:00N 39°53' W 075°13'0 0.0
2017-Oct-01 06:30N 39°53' W 075°13'0 0.0
2017-Oct-01 06:00N 39°53' W 075°13'0 0.0
2017-Oct-01 05:30N 39°53' W 075°13'0 0.0
2017-Oct-01 05:00N 39°53' W 075°13'0 0.0
2017-Oct-01 04:30N 39°53' W 075°13'0 0.0
2017-Oct-01 04:00N 39°53' W 075°13'0 0.0
2017-Oct-01 03:30N 39°53' W 075°13'0 0.0
2017-Oct-01 03:00N 39°53' W 075°13'0 0.0
2017-Sep-30 02:00N 39°53' W 075°13'0 0.0
2017-Sep-30 01:31N 39°53' W 075°13'0 0.0
2017-Sep-30 01:00N 39°53' W 075°13'0 0.0
2017-Sep-30 00:30N 39°53' W 075°13'0 0.0
2017-Sep-30 00:01N 39°53' W 075°13'0 0.0
2017-Sep-29 23:31N 39°53' W 075°13'0 0.0
2017-Sep-29 23:01N 39°53' W 075°13'0 0.0
2017-Sep-29 22:31N 39°53' W 075°13'0 0.0
2017-Sep-29 22:01N 39°53' W 075°13'0 0.0
2017-Sep-29 21:31N 39°53' W 075°13'0 0.0
2017-Sep-29 21:01N 39°53' W 075°13'0 0.0
2017-Sep-29 20:31N 39°53' W 075°13'0 0.0
2017-Sep-29 20:01N 39°53' W 075°13'0 0.0
2017-Sep-29 19:30N 39°53' W 075°13'0 0.0
2017-Sep-29 19:01N 39°53' W 075°13'0 0.0
2017-Sep-29 18:30N 39°53' W 075°13'0 0.0
2017-Sep-29 18:01N 39°53' W 075°13'0 0.0
2017-Sep-29 17:31N 39°53' W 075°13'0 0.0
2017-Sep-29 17:00N 39°53' W 075°13'4 8.1
2017-Sep-29 16:30N 39°51' W 075°17'1 2.1
2017-Sep-29 16:00N 39°51' W 075°19'0 0.8
2017-Sep-29 15:30N 39°51' W 075°19'0 0.3
2017-Sep-29 15:00N 39°51' W 075°19'0 0.8
2017-Sep-29 14:30N 39°51' W 075°19'0 0.3
2017-Sep-29 14:01N 39°51' W 075°19'5 9.8
2017-Sep-29 13:31N 39°49' W 075°24'816.1
2017-Sep-29 13:00N 39°42' W 075°31'817.0
2017-Sep-29 12:31N 39°34' W 075°35'0 0.3
2017-Sep-29 11:58N 39°34' W 075°35'0 0.0
2017-Sep-29 11:28N 39°34' W 075°35'0 0.0
2017-Sep-29 10:58N 39°34' W 075°35'0 0.0
2017-Sep-29 10:28N 39°34' W 075°35'0 0.0
2017-Sep-29 09:58N 39°34' W 075°35'0 0.0
2017-Sep-29 09:28N 39°34' W 075°35'0 0.0
2017-Sep-29 08:58N 39°34' W 075°35'0 0.0
2017-Sep-29 08:28N 39°34' W 075°35'0 0.0
2017-Sep-29 07:58N 39°34' W 075°35'0 0.0
2017-Sep-29 07:28N 39°34' W 075°35'0 0.0
2017-Sep-29 06:58N 39°34' W 075°35'0 0.0
2017-Sep-29 06:28N 39°34' W 075°35'0 0.0
2017-Sep-29 05:58N 39°34' W 075°35'0 0.0
2017-Sep-29 05:28N 39°34' W 075°35'0 0.0
2017-Sep-29 04:58N 39°34' W 075°35'0 0.0
2017-Sep-29 04:28N 39°34' W 075°35'0 0.0
2017-Sep-29 03:58N 39°34' W 075°35'0 0.0
2017-Sep-29 03:28N 39°34' W 075°35'0 0.0
2017-Sep-29 02:58N 39°34' W 075°35'0 0.0
2017-Sep-29 02:28N 39°34' W 075°35'0 0.0
2017-Sep-29 01:58N 39°34' W 075°35'0 0.0
2017-Sep-29 01:28N 39°34' W 075°35'0 0.0
2017-Sep-29 00:58N 39°34' W 075°35'0 0.0
2017-Sep-29 00:28N 39°34' W 075°35'0 0.0
2017-Sep-28 23:58N 39°34' W 075°35'0 0.0
2017-Sep-28 23:28N 39°34' W 075°35'0 0.0
2017-Sep-28 22:58N 39°34' W 075°35'0 0.0
2017-Sep-28 22:28N 39°34' W 075°35'0 0.0
2017-Sep-28 21:58N 39°34' W 075°35'0 0.0
2017-Sep-28 21:28N 39°34' W 075°35'0 0.0
2017-Sep-28 20:58N 39°34' W 075°35'0 0.0
2017-Sep-28 20:28N 39°34' W 075°35'0 0.0
2017-Sep-28 19:58N 39°34' W 075°35'0 0.0
2017-Sep-28 19:28N 39°34' W 075°35'0 0.0
2017-Sep-28 18:58N 39°34' W 075°35'0 0.0
2017-Sep-28 18:28N 39°34' W 075°35'0 0.0
2017-Sep-28 17:58N 39°34' W 075°35'0 0.0
2017-Sep-28 17:28N 39°34' W 075°35'0 0.0
2017-Sep-28 16:58N 39°34' W 075°35'0 0.0
2017-Sep-28 16:28N 39°34' W 075°35'0 0.0
2017-Sep-28 15:58N 39°34' W 075°35'0 0.1
2017-Sep-28 15:30N 39°34' W 075°35'0 0.0
2017-Sep-28 15:00N 39°34' W 075°35'0 0.0
2017-Sep-28 14:31N 39°34' W 075°35'3 6.9
2017-Sep-28 14:00N 39°38' W 075°35'0 0.3
2017-Sep-28 13:30N 39°38' W 075°35'0 0.3
2017-Sep-28 13:00N 39°38' W 075°35'0 0.2
2017-Sep-28 12:30N 39°38' W 075°35'3 5.3
2017-Sep-28 12:00N 39°35' W 075°35'1 1.1
2017-Sep-28 11:28N 39°34' W 075°35'0 0.0
2017-Sep-28 10:58N 39°34' W 075°35'0 0.0
2017-Sep-28 10:28N 39°34' W 075°35'0 0.0
2017-Sep-28 09:58N 39°34' W 075°35'0 0.0
2017-Sep-28 09:28N 39°34' W 075°35'0 0.0
2017-Sep-28 08:58N 39°34' W 075°35'0 0.0
2017-Sep-28 08:28N 39°34' W 075°35'0 0.0
2017-Sep-28 07:58N 39°34' W 075°35'0 0.0
2017-Sep-28 07:28N 39°34' W 075°35'0 0.0
2017-Sep-28 06:58N 39°34' W 075°35'0 0.0
2017-Sep-28 06:28N 39°34' W 075°35'0 0.0
2017-Sep-28 05:58N 39°34' W 075°35'0 0.0
2017-Sep-28 05:28N 39°34' W 075°35'0 0.0
2017-Sep-28 04:58N 39°34' W 075°35'0 0.0
2017-Sep-28 04:28N 39°34' W 075°35'0 0.0
2017-Sep-28 03:58N 39°34' W 075°35'0 0.0
2017-Sep-28 03:28N 39°34' W 075°35'0 0.0
2017-Sep-28 02:58N 39°34' W 075°35'0 0.0
2017-Sep-28 02:28N 39°34' W 075°35'0 0.0
2017-Sep-28 01:58N 39°34' W 075°35'0 0.0
2017-Sep-28 01:28N 39°34' W 075°35'0 0.0
2017-Sep-28 00:58N 39°34' W 075°35'0 0.0
2017-Sep-28 00:28N 39°34' W 075°35'0 0.0
2017-Sep-27 23:58N 39°34' W 075°35'0 0.0
2017-Sep-27 23:28N 39°34' W 075°35'0 0.0
2017-Sep-27 22:58N 39°34' W 075°35'0 0.0
2017-Sep-27 22:28N 39°34' W 075°35'0 0.0
2017-Sep-27 21:58N 39°34' W 075°35'0 0.0
2017-Sep-27 21:28N 39°34' W 075°35'0 0.0
2017-Sep-27 20:58N 39°34' W 075°35'0 0.0
2017-Sep-27 20:28N 39°34' W 075°35'0 0.0
2017-Sep-27 19:58N 39°34' W 075°35'0 0.0
2017-Sep-27 19:28N 39°34' W 075°35'0 0.0
2017-Sep-27 18:58N 39°34' W 075°35'0 0.0
2017-Sep-27 18:28N 39°34' W 075°35'0 0.0
2017-Sep-27 17:58N 39°34' W 075°35'0 0.0
2017-Sep-27 17:28N 39°34' W 075°35'0 0.0
2017-Sep-27 16:58N 39°34' W 075°35'0 0.0
2017-Sep-27 16:30N 39°34' W 075°35'4 8.6
2017-Sep-27 16:00N 39°39' W 075°35'1 1.2
2017-Sep-27 15:30N 39°38' W 075°34'0 0.5
2017-Sep-27 15:00N 39°38' W 075°34'1 2.1
2017-Sep-27 14:30N 39°39' W 075°33'0 0.9
2017-Sep-27 14:00N 39°38' W 075°34'0 0.4
2017-Sep-27 13:30N 39°38' W 075°34'0 0.1
2017-Sep-27 13:00N 39°38' W 075°34'1 1.0
2017-Sep-27 12:31N 39°38' W 075°34'4 6.9
2017-Sep-27 11:58N 39°34' W 075°35'0 0.0
2017-Sep-27 11:28N 39°34' W 075°35'0 0.0
2017-Sep-27 10:58N 39°34' W 075°35'0 0.0
2017-Sep-27 10:25N 39°34' W 075°35'0 0.0
2017-Sep-27 09:58N 39°34' W 075°35'0 0.0
2017-Sep-27 09:28N 39°34' W 075°35'0 0.0
2017-Sep-27 08:58N 39°34' W 075°35'0 0.0
2017-Sep-27 08:28N 39°34' W 075°35'0 0.0
2017-Sep-27 07:58N 39°34' W 075°35'0 0.0
2017-Sep-27 07:28N 39°34' W 075°35'0 0.0
2017-Sep-27 06:58N 39°34' W 075°35'0 0.0
2017-Sep-27 06:28N 39°34' W 075°35'0 0.0
2017-Sep-27 05:58N 39°34' W 075°35'0 0.0
2017-Sep-27 05:28N 39°34' W 075°35'0 0.0
2017-Sep-27 04:58N 39°34' W 075°35'0 0.0
2017-Sep-27 04:28N 39°34' W 075°35'0 0.0
2017-Sep-27 03:58N 39°34' W 075°35'0 0.0
2017-Sep-27 03:28N 39°34' W 075°35'0 0.0
2017-Sep-27 02:58N 39°34' W 075°35'0 0.0
2017-Sep-27 02:28N 39°34' W 075°35'0 0.0
2017-Sep-27 01:58N 39°34' W 075°35'0 0.0
2017-Sep-27 01:28N 39°34' W 075°35'0 0.0
2017-Sep-27 00:58N 39°34' W 075°35'0 0.0
2017-Sep-27 00:28N 39°34' W 075°35'0 0.0
2017-Sep-26 23:58N 39°34' W 075°35'0 0.0
2017-Sep-26 23:28N 39°34' W 075°35'0 0.0
2017-Sep-26 22:58N 39°34' W 075°35'0 0.0
2017-Sep-26 22:28N 39°34' W 075°35'0 0.0
2017-Sep-26 21:58N 39°34' W 075°35'0 0.0
2017-Sep-26 21:28N 39°34' W 075°35'0 0.0
2017-Sep-26 20:58N 39°34' W 075°35'0 0.0
2017-Sep-26 20:28N 39°34' W 075°35'0 0.0
2017-Sep-26 19:58N 39°34' W 075°35'0 0.0
2017-Sep-26 19:28N 39°34' W 075°35'0 0.0
2017-Sep-26 18:58N 39°34' W 075°35'0 0.0
2017-Sep-26 18:28N 39°34' W 075°35'0 0.0
2017-Sep-26 17:58N 39°34' W 075°35'0 0.0
2017-Sep-26 17:28N 39°34' W 075°35'0 0.0
2017-Sep-26 16:58N 39°34' W 075°35'0 0.0
2017-Sep-26 16:28N 39°34' W 075°35'0 0.0
2017-Sep-26 15:58N 39°34' W 075°35'0 0.0
2017-Sep-26 15:30N 39°34' W 075°35'0 0.0
2017-Sep-26 15:00N 39°34' W 075°35'0 0.0
2017-Sep-26 14:30N 39°34' W 075°35'2 4.2
2017-Sep-26 14:00N 39°34' W 075°33'0 0.3
2017-Sep-26 13:30N 39°34' W 075°33'0 0.1
2017-Sep-26 13:00N 39°34' W 075°33'0 0.9
2017-Sep-26 12:30N 39°34' W 075°33'2 3.5
2017-Sep-26 12:00N 39°34' W 075°35'0 0.0
2017-Sep-26 11:30N 39°34' W 075°35'0 0.0
2017-Sep-26 11:00N 39°34' W 075°35'0 0.0
2017-Sep-26 10:30N 39°34' W 075°35'0 0.0
2017-Sep-26 10:00N 39°34' W 075°35'0 0.0
2017-Sep-26 09:30N 39°34' W 075°35'0 0.0
2017-Sep-26 09:00N 39°34' W 075°35'0 0.0
2017-Sep-26 08:30N 39°34' W 075°35'0 0.0
2017-Sep-26 08:00N 39°34' W 075°35'0 0.0
2017-Sep-26 07:30N 39°34' W 075°35'0 0.0
2017-Sep-26 07:00N 39°34' W 075°35'0 0.0
2017-Sep-26 06:30N 39°34' W 075°35'0 0.0
2017-Sep-26 06:00N 39°34' W 075°35'0 0.0
2017-Sep-26 05:30N 39°34' W 075°35'0 0.0
2017-Sep-26 05:01N 39°34' W 075°35'0 0.0
2017-Sep-26 04:30N 39°34' W 075°35'0 0.0
2017-Sep-26 04:00N 39°34' W 075°35'0 0.0
2017-Sep-26 03:30N 39°34' W 075°35'0 0.0
2017-Sep-26 03:00N 39°34' W 075°35'0 0.0
2017-Sep-26 02:30N 39°34' W 075°35'0 0.0
2017-Sep-26 02:00N 39°34' W 075°35'0 0.0
2017-Sep-26 01:30N 39°34' W 075°35'0 0.0
2017-Sep-26 01:00N 39°34' W 075°35'0 0.0
2017-Sep-26 00:30N 39°34' W 075°35'0 0.0
2017-Sep-26 00:00N 39°34' W 075°35'0 0.0
2017-Sep-25 23:30N 39°34' W 075°35'0 0.0
2017-Sep-25 23:00N 39°34' W 075°35'0 0.0
2017-Sep-25 22:30N 39°34' W 075°35'0 0.0
2017-Sep-25 22:00N 39°34' W 075°35'0 0.0
2017-Sep-25 21:30N 39°34' W 075°35'0 0.0
2017-Sep-25 21:00N 39°34' W 075°35'0 0.0
2017-Sep-25 20:30N 39°34' W 075°35'0 0.0
2017-Sep-25 20:00N 39°34' W 075°35'0 0.0
2017-Sep-25 19:30N 39°34' W 075°35'0 0.0
2017-Sep-25 19:00N 39°34' W 075°35'0 0.0
2017-Sep-25 18:30N 39°34' W 075°35'0 0.0
2017-Sep-25 18:00N 39°34' W 075°35'0 0.0
2017-Sep-25 17:30N 39°34' W 075°35'0 0.0
2017-Sep-25 17:00N 39°34' W 075°35'0 0.0
2017-Sep-25 16:30N 39°34' W 075°35'0 0.0
2017-Sep-25 16:00N 39°34' W 075°35'0 0.0
2017-Sep-25 15:30N 39°34' W 075°35'0 0.0
2017-Sep-25 15:00N 39°34' W 075°35'0 0.0
2017-Sep-25 14:30N 39°34' W 075°35'0 0.0
2017-Sep-25 14:00N 39°34' W 075°35'0 0.0
2017-Sep-25 13:31N 39°34' W 075°35'0 0.0
2017-Sep-25 13:00N 39°34' W 075°35'  

Dump ship's entire track history